createdAt,value
2023-09-15T00:01:41.497Z,92236.16
2023-09-15T00:04:08.922Z,92227.09
2023-09-15T00:06:36.722Z,92234.72
2023-09-15T00:09:14.903Z,92231.19
2023-09-15T00:11:43.311Z,92234.72
2023-09-15T00:14:14.970Z,92238.84
2023-09-15T00:16:43.806Z,92229.00
2023-09-15T00:19:15.903Z,92226.19
2023-09-15T00:21:44.360Z,92230.34
2023-09-15T00:24:11.292Z,92226.19
2023-09-15T00:26:39.126Z,92230.34
2023-09-15T00:29:05.920Z,92226.06
2023-09-15T00:31:33.266Z,92224.63
2023-09-15T00:34:00.126Z,92220.34
2023-09-15T00:36:26.775Z,92222.53
2023-09-15T00:38:53.381Z,92221.81
2023-09-15T00:41:19.946Z,92220.34
2023-09-15T00:43:46.542Z,92225.91
2023-09-15T00:46:14.098Z,92222.41
2023-09-15T00:48:41.165Z,92230.78
2023-09-15T00:51:09.005Z,92223.72
2023-09-15T00:53:40.147Z,92220.19
2023-09-15T00:56:09.441Z,92220.34
2023-09-15T00:58:40.275Z,92212.13
2023-09-15T01:01:07.817Z,92212.13
2023-09-15T01:03:40.768Z,92210.81
2023-09-15T01:06:09.465Z,92208.03
2023-09-15T01:08:36.054Z,92208.72
2023-09-15T01:11:05.601Z,92209.47
2023-09-15T01:13:35.984Z,92203.16
2023-09-15T01:16:13.033Z,92205.38
2023-09-15T01:19:10.741Z,92199.78
2023-09-15T01:22:07.879Z,92203.88
2023-09-15T01:24:53.213Z,92210.22
2023-09-15T01:27:35.385Z,92214.31
2023-09-15T01:30:03.526Z,92206.53
2023-09-15T01:32:31.093Z,92212.13
2023-09-15T01:34:57.664Z,92221.81
2023-09-15T01:37:25.126Z,92220.34
2023-09-15T01:39:53.930Z,92225.22
2023-09-15T01:42:20.757Z,92223.72
2023-09-15T01:44:47.498Z,92217.41
2023-09-15T01:47:20.854Z,92227.13
2023-09-15T01:49:50.147Z,92225.66
2023-09-15T01:52:17.666Z,92220.09
2023-09-15T01:54:44.861Z,92226.38
2023-09-15T01:57:11.671Z,92230.50
2023-09-15T01:59:38.315Z,92235.34
2023-09-15T02:02:05.083Z,92235.34
2023-09-15T02:04:31.761Z,92239.47
2023-09-15T02:06:58.697Z,92240.19
2023-09-15T02:09:25.239Z,92238.00
2023-09-15T02:11:51.833Z,92243.56
2023-09-15T02:14:18.366Z,92242.84
2023-09-15T02:16:45.045Z,92240.63
2023-09-15T02:19:11.725Z,92244.91
2023-09-15T02:21:38.293Z,92251.78
2023-09-15T02:24:05.812Z,92240.63
2023-09-15T02:26:32.541Z,92241.97
2023-09-15T02:28:59.083Z,92244.75
2023-09-15T02:31:26.693Z,92240.63
2023-09-15T02:33:53.366Z,92236.53
2023-09-15T02:36:19.965Z,92236.53
2023-09-15T02:38:46.748Z,92245.03
2023-09-15T02:41:13.525Z,92237.38
2023-09-15T02:43:40.101Z,92234.59
2023-09-15T02:46:06.766Z,92228.31
2023-09-15T02:48:33.868Z,92224.19
2023-09-15T02:51:01.071Z,92230.50
2023-09-15T02:53:27.627Z,92237.53
2023-09-15T02:55:58.846Z,92232.56
2023-09-15T02:58:25.461Z,92231.25
2023-09-15T03:00:52.148Z,92229.78
2023-09-15T03:03:18.799Z,92228.31
2023-09-15T03:05:45.481Z,92225.53
2023-09-15T03:08:12.398Z,92226.84
2023-09-15T03:10:38.981Z,92214.22
2023-09-15T03:13:07.185Z,92211.44
2023-09-15T03:15:34.500Z,92205.72
2023-09-15T03:18:01.116Z,92210.56
2023-09-15T03:20:27.678Z,92204.28
2023-09-15T03:22:54.276Z,92203.53
2023-09-15T03:25:21.208Z,92194.44
2023-09-15T03:27:47.872Z,92196.47
2023-09-15T03:30:14.503Z,92194.28
2023-09-15T03:32:41.082Z,92188.72
2023-09-15T03:35:08.524Z,92193.56
2023-09-15T03:37:34.980Z,92188.72
2023-09-15T03:40:01.746Z,92187.25
2023-09-15T03:42:28.309Z,92184.31
2023-09-15T03:44:55.763Z,92178.75
2023-09-15T03:47:22.213Z,92184.31
2023-09-15T03:49:48.844Z,92178.75
2023-09-15T03:52:15.530Z,92171.72
2023-09-15T03:54:42.120Z,92175.81
2023-09-15T03:57:08.654Z,92174.38
2023-09-15T03:59:36.074Z,92163.22
2023-09-15T04:02:04.960Z,92171.59
2023-09-15T04:04:31.978Z,92168.78
2023-09-15T04:06:58.623Z,92165.41
2023-09-15T04:09:28.077Z,92161.88
2023-09-15T04:11:58.697Z,92161.88
2023-09-15T04:14:25.561Z,92160.56
2023-09-15T04:16:52.308Z,92166.84
2023-09-15T04:19:19.006Z,92162.03
2023-09-15T04:21:46.157Z,92164.94
2023-09-15T04:24:12.699Z,92164.22
2023-09-15T04:26:40.220Z,92166.41
2023-09-15T04:29:06.845Z,92160.09
2023-09-15T04:31:33.498Z,92166.41
2023-09-15T04:34:00.161Z,92163.59
2023-09-15T04:36:26.695Z,92163.47
2023-09-15T04:38:53.284Z,92174.63
2023-09-15T04:41:19.842Z,92170.38
2023-09-15T04:43:46.404Z,92171.72
2023-09-15T04:46:13.169Z,92181.41
2023-09-15T04:48:39.814Z,92179.94
2023-09-15T04:51:06.428Z,92190.34
2023-09-15T04:53:33.571Z,92186.81
2023-09-15T04:56:00.190Z,92200.03
2023-09-15T04:58:26.795Z,92202.09
2023-09-15T05:00:58.633Z,92199.19
2023-09-15T05:03:25.244Z,92207.53
2023-09-15T05:05:53.075Z,92207.53
2023-09-15T05:08:19.610Z,92214.44
2023-09-15T05:10:50.146Z,92210.19
2023-09-15T05:13:17.216Z,92215.75
2023-09-15T05:15:44.190Z,92217.81
2023-09-15T05:18:10.898Z,92217.09
2023-09-15T05:20:37.974Z,92205.22
2023-09-15T05:23:04.593Z,92211.38
2023-09-15T05:25:31.257Z,92219.59
2023-09-15T05:27:57.922Z,92212.28
2023-09-15T05:30:24.490Z,92213.59
2023-09-15T05:32:51.167Z,92223.16
2023-09-15T05:35:17.872Z,92218.75
2023-09-15T05:37:44.453Z,92218.16
2023-09-15T05:40:11.512Z,92217.56
2023-09-15T05:42:38.067Z,92219.03
2023-09-15T05:45:05.181Z,92217.88
2023-09-15T05:47:31.808Z,92210.94
2023-09-15T05:50:01.988Z,92216.66
2023-09-15T05:52:28.737Z,92215.47
2023-09-15T05:54:55.323Z,92216.22
2023-09-15T05:57:21.869Z,92210.03
2023-09-15T05:59:48.407Z,92213.56
2023-09-15T06:02:18.380Z,92212.97
2023-09-15T06:04:47.274Z,92221.34
2023-09-15T06:07:13.916Z,92217.22
2023-09-15T06:09:40.514Z,92219.28
2023-09-15T06:12:07.110Z,92220.75
2023-09-15T06:14:37.091Z,92212.97
2023-09-15T06:17:04.074Z,92214.31
2023-09-15T06:19:30.698Z,92212.84
2023-09-15T06:21:57.222Z,92206.50
2023-09-15T06:24:23.901Z,92202.72
2023-09-15T06:26:50.494Z,92206.72
2023-09-15T06:29:17.270Z,92203.63
2023-09-15T06:31:43.999Z,92206.13
2023-09-15T06:34:10.627Z,92214.34
2023-09-15T06:36:37.978Z,92212.16
2023-09-15T06:39:06.904Z,92208.53
2023-09-15T06:41:33.614Z,92208.38
2023-09-15T06:44:00.338Z,92202.66
2023-09-15T06:46:28.272Z,92202.66
2023-09-15T06:48:55.069Z,92199.72
2023-09-15T06:51:21.694Z,92202.38
2023-09-15T06:53:48.262Z,92207.94
2023-09-15T06:56:14.953Z,92203.69
2023-09-15T06:58:41.536Z,92213.50
2023-09-15T07:01:08.708Z,92218.34
2023-09-15T07:03:35.286Z,92214.25
2023-09-15T07:06:03.001Z,92206.63
2023-09-15T07:08:29.558Z,92206.75
2023-09-15T07:10:56.092Z,92205.59
2023-09-15T07:13:22.762Z,92205.72
2023-09-15T07:15:49.509Z,92206.00
2023-09-15T07:18:16.223Z,92202.31
2023-09-15T07:20:43.590Z,92204.78
2023-09-15T07:23:11.011Z,92198.75
2023-09-15T07:25:37.851Z,92203.88
2023-09-15T07:28:04.965Z,92196.09
2023-09-15T07:30:31.829Z,92197.84
2023-09-15T07:32:58.540Z,92193.75
2023-09-15T07:35:25.169Z,92195.19
2023-09-15T07:37:51.917Z,92193.75
2023-09-15T07:40:24.690Z,92189.47
2023-09-15T07:42:51.713Z,92187.44
2023-09-15T07:45:18.291Z,92183.91
2023-09-15T07:47:44.942Z,92185.25
2023-09-15T07:50:11.708Z,92178.19
2023-09-15T07:52:38.297Z,92173.94
2023-09-15T07:55:06.243Z,92171.16
2023-09-15T07:57:33.949Z,92164.13
2023-09-15T08:00:00.676Z,92166.78
2023-09-15T08:02:28.150Z,92163.84
2023-09-15T08:04:55.126Z,92165.91
2023-09-15T08:07:21.896Z,92159.56
2023-09-15T08:09:48.486Z,92155.34
2023-09-15T08:12:17.780Z,92152.41
2023-09-15T08:14:44.356Z,92156.69
2023-09-15T08:17:19.591Z,92146.97
2023-09-15T08:19:57.587Z,92143.00
2023-09-15T08:22:24.394Z,92140.34
2023-09-15T08:24:51.291Z,92132.13
2023-09-15T08:27:18.808Z,92135.06
2023-09-15T08:29:45.395Z,92125.50
2023-09-15T08:32:15.622Z,92131.22
2023-09-15T08:34:42.372Z,92127.09
2023-09-15T08:37:08.990Z,92130.00
2023-09-15T08:39:35.637Z,92125.91
2023-09-15T08:42:04.461Z,92124.72
2023-09-15T08:44:33.529Z,92112.09
2023-09-15T08:47:02.252Z,92110.63
2023-09-15T08:49:29.798Z,92112.09
2023-09-15T08:51:57.487Z,92117.69
2023-09-15T08:54:24.435Z,92102.25
2023-09-15T08:56:51.374Z,92106.38
2023-09-15T08:59:18.405Z,92093.66
2023-09-15T09:01:45.236Z,92095.09
2023-09-15T09:04:12.668Z,92094.34
2023-09-15T09:06:40.525Z,92091.56
2023-09-15T09:09:08.524Z,92094.34
2023-09-15T09:11:35.265Z,92090.72
2023-09-15T09:14:02.017Z,92096.31
2023-09-15T09:16:29.762Z,92094.81
2023-09-15T09:18:57.668Z,92093.38
2023-09-15T09:21:26.599Z,92098.94
2023-09-15T09:23:53.786Z,92095.41
2023-09-15T09:26:20.567Z,92080.75
2023-09-15T09:28:48.175Z,92080.75
2023-09-15T09:31:16.430Z,92074.44
2023-09-15T09:33:43.861Z,92075.16
2023-09-15T09:36:17.122Z,92080.03
2023-09-15T09:38:47.561Z,92075.16
2023-09-15T09:41:16.607Z,92063.31
2023-09-15T09:43:47.825Z,92068.13
2023-09-15T09:46:16.370Z,92069.59
2023-09-15T09:48:44.063Z,92061.22
2023-09-15T09:51:15.080Z,92058.44
2023-09-15T09:53:42.004Z,92051.41
2023-09-15T09:56:08.610Z,92054.34
2023-09-15T09:58:39.691Z,92052.84
2023-09-15T10:01:11.274Z,92041.72
2023-09-15T10:03:38.248Z,92043.91
2023-09-15T10:06:05.344Z,92040.53
2023-09-15T10:08:32.943Z,92026.00
2023-09-15T10:11:00.120Z,92035.19
2023-09-15T10:13:27.730Z,92015.09
2023-09-15T10:15:55.221Z,92014.50
2023-09-15T10:18:22.315Z,92015.97
2023-09-15T10:20:51.388Z,92010.50
2023-09-15T10:23:18.833Z,92020.31
2023-09-15T10:25:53.011Z,92013.44
2023-09-15T10:28:39.382Z,92015.63
2023-09-15T10:31:09.685Z,92012.22
2023-09-15T10:33:39.192Z,92010.91
2023-09-15T10:36:05.924Z,92017.94
2023-09-15T10:38:35.478Z,91998.41
2023-09-15T10:41:06.525Z,91994.28
2023-09-15T10:43:33.282Z,91994.28
2023-09-15T10:46:05.534Z,91992.84
2023-09-15T10:48:48.131Z,91990.94
2023-09-15T10:51:20.408Z,91980.47
2023-09-15T10:53:52.445Z,91977.09
2023-09-15T10:56:20.535Z,91976.50
2023-09-15T10:58:51.045Z,91973.72
2023-09-15T11:01:19.625Z,91968.16
2023-09-15T11:03:46.988Z,91961.22
2023-09-15T11:06:19.195Z,91964.75
2023-09-15T11:08:45.910Z,91964.00
2023-09-15T11:11:12.547Z,91960.63
2023-09-15T11:13:41.460Z,91955.78
2023-09-15T11:16:10.021Z,91955.78
2023-09-15T11:18:38.860Z,91950.19
2023-09-15T11:21:06.997Z,91957.97
2023-09-15T11:23:36.258Z,91951.66
2023-09-15T11:26:17.047Z,91946.06
2023-09-15T11:28:48.645Z,91946.06
2023-09-15T11:31:15.610Z,91941.97
2023-09-15T11:33:43.727Z,91947.53
2023-09-15T11:36:11.310Z,91947.53
2023-09-15T11:38:38.657Z,91941.97
2023-09-15T11:41:06.262Z,91940.63
2023-09-15T11:43:33.767Z,91942.09
2023-09-15T11:46:01.497Z,91935.16
2023-09-15T11:48:29.335Z,91937.34
2023-09-15T11:50:59.064Z,91932.50
2023-09-15T11:53:30.767Z,91933.97
2023-09-15T11:55:57.676Z,91936.88
2023-09-15T11:58:24.655Z,91925.00
2023-09-15T12:00:51.245Z,91928.63
2023-09-15T12:03:19.629Z,91924.53
2023-09-15T12:05:46.500Z,91918.97
2023-09-15T12:08:13.281Z,91916.28
2023-09-15T12:10:40.178Z,91923.31
2023-09-15T12:13:06.776Z,91906.59
2023-09-15T12:15:34.082Z,91913.63
2023-09-15T12:18:03.198Z,91906.59
2023-09-15T12:20:29.767Z,91902.47
2023-09-15T12:22:56.346Z,91908.06
2023-09-15T12:25:22.968Z,91902.47
2023-09-15T12:27:49.549Z,91895.41
2023-09-15T12:30:16.649Z,91891.91
2023-09-15T12:32:46.569Z,91893.94
2023-09-15T12:35:15.443Z,91889.84
2023-09-15T12:37:46.421Z,91889.84
2023-09-15T12:40:14.732Z,91882.09
2023-09-15T12:42:42.399Z,91881.34
2023-09-15T12:45:09.461Z,91877.22
2023-09-15T12:47:36.228Z,91884.25
2023-09-15T12:50:06.551Z,91877.22
2023-09-15T12:52:34.125Z,91874.41
2023-09-15T12:55:00.760Z,91871.63
2023-09-15T12:57:27.382Z,91877.94
2023-09-15T12:59:54.238Z,91868.84
2023-09-15T13:02:21.135Z,91864.72
2023-09-15T13:04:47.976Z,91870.31
2023-09-15T13:07:14.730Z,91870.31
2023-09-15T13:09:41.352Z,91861.94
2023-09-15T13:12:08.526Z,91863.41
2023-09-15T13:14:35.522Z,91857.84
2023-09-15T13:17:05.312Z,91853.72
2023-09-15T13:19:32.110Z,91848.16
2023-09-15T13:21:59.516Z,91847.41
2023-09-15T13:24:26.025Z,91856.66
2023-09-15T13:26:53.624Z,91841.34
2023-09-15T13:29:20.316Z,91842.81
2023-09-15T13:31:46.897Z,91837.47
2023-09-15T13:34:13.446Z,91838.94
2023-09-15T13:36:40.219Z,91833.34
2023-09-15T13:39:10.115Z,91833.34
2023-09-15T13:41:36.696Z,91834.81
2023-09-15T13:44:04.598Z,91834.19
2023-09-15T13:46:31.388Z,91837.97
2023-09-15T13:48:57.998Z,91833.84
2023-09-15T13:53:55.595Z,91834.09
2023-09-15T13:56:22.135Z,91840.41
2023-09-15T13:58:49.339Z,91825.09
2023-09-15T14:01:16.810Z,91823.19
2023-09-15T14:03:45.662Z,91831.69
2023-09-15T14:06:13.324Z,91830.19
2023-09-15T14:08:39.919Z,91826.09
2023-09-15T14:11:07.668Z,91826.09
2023-09-15T14:13:35.877Z,91816.97
2023-09-15T14:16:03.480Z,91823.41
2023-09-15T14:18:30.284Z,91815.16
2023-09-15T14:20:59.054Z,91810.31
2023-09-15T14:23:28.834Z,91816.63
2023-09-15T14:25:55.588Z,91814.44
2023-09-15T14:28:22.197Z,91810.78
2023-09-15T14:30:58.580Z,91813.47
2023-09-15T14:33:25.169Z,91812.00
2023-09-15T14:35:51.835Z,91809.34
2023-09-15T14:38:18.407Z,91806.91
2023-09-15T14:40:45.007Z,91805.66
2023-09-15T14:43:11.579Z,91809.81
2023-09-15T14:45:38.749Z,91809.81
2023-09-15T14:48:05.575Z,91808.38
2023-09-15T14:50:34.326Z,91807.63
2023-09-15T14:53:01.508Z,91805.44
2023-09-15T14:55:28.214Z,91806.78
2023-09-15T14:57:54.855Z,91794.03
2023-09-15T15:00:21.402Z,91797.56
2023-09-15T15:02:48.103Z,91794.03
2023-09-15T15:05:14.726Z,91800.34
2023-09-15T15:07:42.109Z,91792.09
2023-09-15T15:10:08.710Z,91792.81
2023-09-15T15:12:35.313Z,91785.66
2023-09-15T15:15:02.034Z,91788.47
2023-09-15T15:17:28.882Z,91794.78
2023-09-15T15:19:55.574Z,91789.19
2023-09-15T15:22:23.103Z,91788.47
2023-09-15T15:24:49.775Z,91790.03
2023-09-15T15:27:19.806Z,91784.56
2023-09-15T15:29:48.159Z,91795.13
2023-09-15T15:32:14.742Z,91786.03
2023-09-15T15:34:41.321Z,91790.16
2023-09-15T15:37:08.119Z,91794.28
2023-09-15T15:39:34.773Z,91792.19
2023-09-15T15:42:02.166Z,91792.81
2023-09-15T15:44:30.048Z,91792.69
2023-09-15T15:46:56.624Z,91796.09
2023-09-15T15:49:23.517Z,91795.97
2023-09-15T15:51:50.147Z,91802.03
2023-09-15T15:54:17.861Z,91794.41
2023-09-15T15:56:45.382Z,91799.97
2023-09-15T15:59:11.843Z,91800.59
2023-09-15T16:01:38.476Z,91804.00
2023-09-15T16:04:05.282Z,91799.03
2023-09-15T16:06:31.903Z,91808.72
2023-09-15T16:08:58.896Z,91804.47
2023-09-15T16:11:25.588Z,91805.94
2023-09-15T16:13:52.349Z,91801.56
2023-09-15T16:16:18.985Z,91801.56
2023-09-15T16:18:45.606Z,91802.88
2023-09-15T16:21:12.341Z,91807.03
2023-09-15T16:23:39.555Z,91811.16
2023-09-15T16:26:06.482Z,91811.03
2023-09-15T16:28:33.184Z,91813.97
2023-09-15T16:31:00.154Z,91817.44
2023-09-15T16:33:27.876Z,91825.13
2023-09-15T16:36:02.479Z,91831.41
2023-09-15T16:38:29.907Z,91829.34
2023-09-15T16:41:01.179Z,91826.56
2023-09-15T16:43:30.063Z,91828.63
2023-09-15T16:45:58.880Z,91832.16
2023-09-15T16:48:27.968Z,91823.66
2023-09-15T16:50:54.632Z,91825.81
2023-09-15T16:53:21.201Z,91829.22
2023-09-15T16:55:51.965Z,91834.81
2023-09-15T16:58:18.819Z,91829.22
2023-09-15T17:00:46.334Z,91833.34
2023-09-15T17:03:13.003Z,91836.75
2023-09-15T17:05:39.972Z,91841.59
2023-09-15T17:08:07.328Z,91839.44
2023-09-15T17:10:37.610Z,91843.53
2023-09-15T17:13:05.212Z,91841.34
2023-09-15T17:15:33.428Z,91851.06
2023-09-15T17:18:01.097Z,91856.66
2023-09-15T17:20:28.291Z,91853.72
2023-09-15T17:22:54.854Z,91848.16
2023-09-15T17:25:21.467Z,91847.41
2023-09-15T17:27:48.673Z,91857.84
2023-09-15T17:30:16.616Z,91864.72
2023-09-15T17:32:44.005Z,91866.06
2023-09-15T17:35:10.536Z,91861.22
2023-09-15T17:37:37.131Z,91868.84
2023-09-15T17:40:06.366Z,91873.59
2023-09-15T17:42:33.433Z,91871.41
2023-09-15T17:45:00.394Z,91876.97
2023-09-15T17:47:27.013Z,91883.75
2023-09-15T17:50:07.275Z,91880.97
2023-09-15T17:52:35.286Z,91892.72
2023-09-15T17:55:02.595Z,91889.81
2023-09-15T17:57:30.801Z,91898.78
2023-09-15T17:59:57.824Z,91908.63
2023-09-15T18:02:24.881Z,91901.56
2023-09-15T18:04:52.300Z,91907.16
2023-09-15T18:07:18.760Z,91907.28
2023-09-15T18:09:46.007Z,91910.81
2023-09-15T18:12:12.652Z,91914.34
2023-09-15T18:14:39.301Z,91914.34
2023-09-15T18:17:05.851Z,91914.34
2023-09-15T18:19:32.387Z,91919.19
2023-09-15T18:21:58.975Z,91920.50
2023-09-15T18:24:25.584Z,91919.91
2023-09-15T18:26:52.258Z,91926.19
2023-09-15T18:29:18.801Z,91928.28
2023-09-15T18:31:45.780Z,91931.66
2023-09-15T18:34:12.454Z,91932.25
2023-09-15T18:36:39.091Z,91934.91
2023-09-15T18:39:09.927Z,91937.69
2023-09-15T18:41:36.881Z,91934.19
2023-09-15T18:44:04.534Z,91943.19
2023-09-15T18:46:31.473Z,91949.31
2023-09-15T18:49:00.311Z,91949.19
2023-09-15T18:51:26.994Z,91949.94
2023-09-15T18:53:53.693Z,91951.28
2023-09-15T18:56:20.264Z,91958.16
2023-09-15T18:58:47.143Z,91960.97
2023-09-15T19:01:14.030Z,91949.81
2023-09-15T19:03:40.649Z,91958.16
2023-09-15T19:06:07.428Z,91963.75
2023-09-15T19:08:34.105Z,91958.16
2023-09-15T19:11:04.871Z,91963.75
2023-09-15T19:13:33.898Z,91962.31
2023-09-15T19:16:01.385Z,91958.78
2023-09-15T19:18:28.512Z,91967.88
2023-09-15T19:20:57.164Z,91967.75
2023-09-15T19:23:23.690Z,91969.09
2023-09-15T19:25:50.310Z,91967.63
2023-09-15T19:28:16.925Z,91983.59
2023-09-15T19:30:43.610Z,91978.63
2023-09-15T19:33:10.610Z,91978.63
2023-09-15T19:35:37.351Z,91979.97
2023-09-15T19:38:04.166Z,91986.28
2023-09-15T19:40:32.498Z,91987.00
2023-09-15T19:43:00.250Z,91984.81
2023-09-15T19:45:26.861Z,91986.28
2023-09-15T19:47:53.652Z,91979.97
2023-09-15T19:50:20.376Z,91987.00
2023-09-15T19:52:46.934Z,91982.16
2023-09-15T19:55:13.549Z,91982.91
2023-09-15T19:57:51.218Z,91994.75
2023-09-15T20:00:18.711Z,91993.31
2023-09-15T20:02:49.306Z,92008.13
2023-09-15T20:05:16.549Z,92017.81
2023-09-15T20:07:43.829Z,92006.66
2023-09-15T20:10:12.407Z,91993.31
2023-09-15T20:12:39.148Z,91999.63
2023-09-15T20:15:09.055Z,92009.31
2023-09-15T20:17:40.189Z,92002.28
2023-09-15T20:20:08.600Z,92014.75
2023-09-15T20:22:36.183Z,92000.69
2023-09-15T20:25:06.464Z,92002.75
2023-09-15T20:27:34.960Z,92009.63
2023-09-15T20:30:03.629Z,92006.84
2023-09-15T20:32:30.521Z,92006.84
2023-09-15T20:34:57.164Z,92001.16
2023-09-15T20:37:27.243Z,92007.31
2023-09-15T20:39:54.004Z,92004.66
2023-09-15T20:42:21.106Z,92020.69
2023-09-15T20:44:47.893Z,92010.25
2023-09-15T20:47:14.878Z,92025.53
2023-09-15T20:49:41.684Z,92021.41
2023-09-15T20:52:09.273Z,92010.00
2023-09-15T20:54:36.464Z,92010.09
2023-09-15T20:57:04.054Z,92017.03
2023-09-15T20:59:30.658Z,92019.94
2023-09-15T21:01:58.046Z,92016.28
2023-09-15T21:04:24.977Z,92017.03
2023-09-15T21:06:51.845Z,92014.84
2023-09-15T21:09:20.331Z,92014.09
2023-09-15T21:11:47.698Z,92019.69
2023-09-15T21:14:14.341Z,92007.06
2023-09-15T21:16:40.975Z,92007.06
2023-09-15T21:19:09.287Z,92014.09
2023-09-15T21:21:36.349Z,92005.13
2023-09-15T21:24:03.714Z,92004.41
2023-09-15T21:26:30.363Z,92005.13
2023-09-15T21:28:57.018Z,92004.53
2023-09-15T21:31:23.651Z,92002.34
2023-09-15T21:33:50.300Z,92000.28
2023-09-15T21:36:17.150Z,92005.88
2023-09-15T21:38:44.464Z,92005.88
2023-09-15T21:41:11.443Z,92010.00
2023-09-15T21:43:38.051Z,92011.44
2023-09-15T21:46:04.818Z,92005.00
2023-09-15T21:48:31.600Z,92014.09
2023-09-15T21:50:58.249Z,92018.22
2023-09-15T21:53:25.886Z,92020.88
2023-09-15T21:55:54.524Z,92027.91
2023-09-15T21:58:21.143Z,92022.19
2023-09-15T22:00:49.232Z,92029.84
2023-09-15T22:03:16.002Z,92026.31
2023-09-15T22:05:42.628Z,92027.63
2023-09-15T22:08:09.381Z,92040.13
2023-09-15T22:10:35.928Z,92033.09
2023-09-15T22:13:02.552Z,92035.88
2023-09-15T22:15:29.568Z,92025.44
2023-09-15T22:17:56.314Z,92026.03
2023-09-15T22:20:27.839Z,92023.84
2023-09-15T22:22:56.489Z,92021.81
2023-09-15T22:25:27.408Z,92025.19
2023-09-15T22:27:54.829Z,92021.69
2023-09-15T22:30:22.455Z,92015.22
2023-09-15T22:32:49.521Z,92009.66
2023-09-15T22:35:16.781Z,92015.97
2023-09-15T22:37:47.366Z,92015.22
2023-09-15T22:40:15.402Z,92024.19
2023-09-15T22:42:44.903Z,92029.75
2023-09-15T22:45:17.750Z,92028.31
2023-09-15T22:47:50.919Z,92039.47
2023-09-15T22:50:19.349Z,92043.56
2023-09-15T22:52:46.449Z,92043.56
2023-09-15T22:55:19.329Z,92047.81
2023-09-15T22:57:46.355Z,92045.03
2023-09-15T23:00:14.700Z,92052.66
2023-09-15T23:02:42.832Z,92057.50
2023-09-15T23:05:10.599Z,92049.13
2023-09-15T23:07:39.968Z,92050.59
2023-09-15T23:10:08.495Z,92058.84
2023-09-15T23:12:35.504Z,92054.72
2023-09-15T23:15:03.498Z,92054.72
2023-09-15T23:17:30.338Z,92056.06
2023-09-15T23:19:56.932Z,92060.88
2023-09-15T23:22:23.858Z,92051.78
2023-09-15T23:24:54.041Z,92061.47
2023-09-15T23:27:20.657Z,92063.53
2023-09-15T23:29:47.434Z,92060.00
2023-09-15T23:32:14.061Z,92064.13
2023-09-15T23:34:41.986Z,92061.22
2023-09-15T23:37:08.932Z,92071.03
2023-09-15T23:39:36.442Z,92077.94
2023-09-15T23:42:03.609Z,92070.91
2023-09-15T23:44:30.228Z,92071.63
2023-09-15T23:46:57.681Z,92076.47
2023-09-15T23:49:24.853Z,92075.59
2023-09-15T23:51:52.362Z,92074.28
2023-09-15T23:54:19.172Z,92079.13
2023-09-15T23:56:46.014Z,92087.34
2023-09-15T23:59:13.212Z,92081.03
